• Join FlightAware (Why Join?)
  • Login
  • US Flag 
02:24PM EST


 

Airport Tracker/Info


-or-


 

Live Flight TrackerFlight Track Log ✈ OPT429 ✈ 12-Jun-2014 ✈ KGUY - KMKC

Flight Track Log - Related Links

Times and Time Zones

All times are in EDT time to prevent confusion due to time zone crossing. See the OPT429 flight status page for this flight to view local times or setup timezone preferences in your user account.

Time Position Orientation Groundspeed Altitude Reporting Facility
EDT Latitude Longitude Course Direction KTS MPH feet Rate Location/Type
03:47PM 36.7942 -101.2775 68° East 261 300 7,600  Level Kansas City Center
03:48PM 36.8183 -101.1922 70° East 267 307 9,200 1,680 Climbing Kansas City Center
03:49PM 36.8483 -101.0794 72° East 294 338 11,100 1,620 Climbing Kansas City Center
03:50PM 36.8764 -100.9706 72° East 331 381 12,600 1,620 Climbing Kansas City Center
03:51PM 36.8641 -100.8257 70° East  Level FlightAware Approximate
03:51PM 36.9117 -100.8431 71° East 344 396 14,500  Level Kansas City Center
03:52PM 36.9005 -100.7154 67° East  Level FlightAware Approximate
03:52PM 36.9428 -100.7278 71° East 358 412 16,000  Level Kansas City Center
03:53PM 36.9803 -100.5903 71° East 371 427 17,700 1,500 Climbing Kansas City Center
03:54PM 37.0128 -100.4697 71° East 378 435 19,200 1,560 Climbing Kansas City Center
03:56PM 37.0514 -100.3275 71° East 383 441 21,000 1,560 Climbing Kansas City Center
03:57PM 37.0839 -100.2031 72° East 388 447 22,500 1,620 Climbing Kansas City Center
03:58PM 37.1225 -100.0597 71° East 388 447 24,400 1,620 Climbing Kansas City Center
03:59PM 37.1547 -99.9350 72° East 389 448 25,900 1,560 Climbing Kansas City Center
04:00PM 37.1928 -99.7892 72° East 392 451 27,700 1,620 Climbing Kansas City Center
04:01PM 37.2261 -99.6631 72° East 395 455 29,300 1,620 Climbing Kansas City Center
04:02PM 37.2642 -99.5128 72° East 399 459 31,100 1,440 Climbing Kansas City Center
04:03PM 37.2983 -99.3844 71° East 411 473 32,400 1,440 Climbing Kansas City Center
04:04PM 37.3372 -99.2353 72° East 416 479 34,100 1,200 Climbing Kansas City Center
04:05PM 37.3717 -99.0958 73° East 417 480 35,000 420 Climbing Kansas City Center
04:06PM 37.4089 -98.9472 72° East 436 502 35,000  Level Kansas City Center
04:07PM 37.4475 -98.7981 72° East 447 514 35,000  Level Kansas City Center
04:08PM 37.4844 -98.6506 72° East 447 514 35,000  Level Kansas City Center
04:09PM 37.5281 -98.4736 73° East 446 513 35,000  Level Kansas City Center
04:10PM 37.5647 -98.3281 72° East 444 511 35,000  Level Kansas City Center
04:11PM 37.6003 -98.1828 73° East 439 505 35,000  Level Kansas City Center
04:12PM 37.6378 -98.0328 72° East 441 507 35,000  Level Kansas City Center
04:13PM 37.6758 -97.8786 73° East 450 518 35,000  Level Kansas City Center
04:14PM 37.7192 -97.6853 74° East 467 537 35,000  Level Kansas City Center
04:15PM 37.7644 -97.5325 69° East 464 534 35,000  Level Kansas City Center
04:16PM 37.8158 -97.3992 64° Northeast 461 531 35,000  Level Kansas City Center
04:17PM 37.8711 -97.2558 64° Northeast 460 529 35,000  Level Kansas City Center
04:18PM 37.9358 -97.0864 64° Northeast 453 521 35,000  Level Kansas City Center
04:19PM 37.9906 -96.9444 64° Northeast 451 519 35,000  Level Kansas City Center
04:20PM 38.0436 -96.8022 65° Northeast 450 518 35,000  Level Kansas City Center
04:21PM 38.0967 -96.6606 65° Northeast 448 516 35,000  Level Kansas City Center
04:22PM 38.1503 -96.5189 64° Northeast 448 516 35,000 -720 Level Kansas City Center
04:23PM 38.2083 -96.3636 65° Northeast 446 513 33,600 -2,160 Descending Kansas City Center
04:24PM 38.2583 -96.2256 65° Northeast 437 503 30,600 -2,940 Descending Kansas City Center
04:26PM 38.3181 -96.1042 58° Northeast 409 471 27,500 -3,300 Descending Kansas City Center
04:27PM 38.4089 -95.9756 48° Northeast 405 466 23,900 -3,120 Descending Kansas City Center
04:28PM 38.4861 -95.8689 47° Northeast 409 471 21,200 -1,440 Descending Kansas City Center
04:29PM 38.5567 -95.7700 48° Northeast 383 441 21,000 -540 Descending Kansas City Center
04:30PM 38.6306 -95.6683 47° Northeast 386 444 20,100 -1,680 Descending Kansas City Center
04:31PM 38.7033 -95.5644 48° Northeast 392 451 17,500 -2,520 Descending Kansas City Center
04:32PM 38.7764 -95.4619 48° Northeast 392 451 14,900 -2,880 Descending Kansas City Center
04:33PM 38.8547 -95.3517 48° Northeast 349 402 11,700 -2,400 Descending Kansas City Center
04:34PM 38.8931 -95.2511 64° Northeast 320 368 10,100 -1,080 Descending Kansas City Center
04:35PM 38.9256 -95.1553 66° East 300 345 9,500 -1,320 Descending Kansas City Center
04:36PM 38.9597 -95.0581 66° East 300 345 7,400 -1,620 Descending Kansas City Center
04:37PM 38.9978 -94.9519 65° Northeast 280 322 6,300 -1,440 Descending Kansas City Center
04:38PM 39.0328 -94.8756 59° Northeast 261 300 4,400 -1,620 Descending Kansas City Center
04:39PM 39.0406 -94.7889 83° East 249 287 3,000 -720 Descending Kansas City Center
04:40PM 39.0472 -94.7125 84° East 220 253 3,000 -360 Level Kansas City Center
04:41PM 39.0481 -94.6472 89° East 185 213 2,300 -600 Descending Kansas City Center
04:42PM 39.0706 -94.6083 53° Northeast 142 163 1,800 -600 Descending Kansas City Center
04:43PM 39.1056 -94.5975 14° North 129 148 1,100 -720 Descending Kansas City Center
04:45PM 39.1167 -94.5833 108° East  Level FlightAware Approximate